sensor_id;sensor_type;location;lat;lon;timestamp;pressure;altitude;pressure_sealevel;temperature;humidity
51460;BME280;37534;39.772;2.718;2023-01-26T00:00:46;101621.22;;;7.38;100.00
51460;BME280;37534;39.772;2.718;2023-01-26T00:03:11;101610.03;;;7.17;100.00
51460;BME280;37534;39.772;2.718;2023-01-26T00:05:37;101623.75;;;7.30;100.00
51460;BME280;37534;39.772;2.718;2023-01-26T00:08:03;101610.88;;;7.19;100.00
51460;BME280;37534;39.772;2.718;2023-01-26T00:10:29;101601.44;;;7.04;100.00
51460;BME280;37534;39.772;2.718;2023-01-26T00:12:55;101601.50;;;7.20;100.00
51460;BME280;37534;39.772;2.718;2023-01-26T00:15:20;101609.16;;;7.12;100.00
51460;BME280;37534;39.772;2.718;2023-01-26T00:17:46;101621.13;;;7.12;100.00
51460;BME280;37534;39.772;2.718;2023-01-26T00:20:11;101609.16;;;7.08;100.00
51460;BME280;37534;39.772;2.718;2023-01-26T00:22:37;101612.66;;;7.43;100.00
51460;BME280;37534;39.772;2.718;2023-01-26T00:25:02;101609.22;;;7.49;100.00
51460;BME280;37534;39.772;2.718;2023-01-26T00:27:28;101600.63;;;7.32;100.00
51460;BME280;37534;39.772;2.718;2023-01-26T00:29:54;101599.78;;;7.23;100.00
51460;BME280;37534;39.772;2.718;2023-01-26T00:32:19;101591.25;;;7.23;100.00
51460;BME280;37534;39.772;2.718;2023-01-26T00:34:45;101594.63;;;7.17;100.00
51460;BME280;37534;39.772;2.718;2023-01-26T00:37:10;101598.91;;;7.18;100.00
51460;BME280;37534;39.772;2.718;2023-01-26T00:39:36;101590.38;;;7.18;100.00
51460;BME280;37534;39.772;2.718;2023-01-26T00:42:01;101580.97;;;7.35;100.00
51460;BME280;37534;39.772;2.718;2023-01-26T00:44:39;101582.66;;;7.24;100.00
51460;BME280;37534;39.772;2.718;2023-01-26T00:47:06;101593.78;;;7.15;100.00
51460;BME280;37534;39.772;2.718;2023-01-26T00:49:33;101595.47;;;7.09;100.00
51460;BME280;37534;39.772;2.718;2023-01-26T00:51:59;101594.63;;;7.03;100.00
51460;BME280;37534;39.772;2.718;2023-01-26T00:54:25;101594.59;;;7.07;100.00
51460;BME280;37534;39.772;2.718;2023-01-26T00:56:51;101597.16;;;7.05;100.00
51460;BME280;37534;39.772;2.718;2023-01-26T00:59:16;101585.19;;;7.04;100.00
51460;BME280;37534;39.772;2.718;2023-01-26T01:01:42;101585.22;;;7.24;100.00
51460;BME280;37534;39.772;2.718;2023-01-26T01:04:07;101587.81;;;7.27;100.00
51460;BME280;37534;39.772;2.718;2023-01-26T01:06:33;101588.66;;;7.26;100.00
51460;BME280;37534;39.772;2.718;2023-01-26T01:08:58;101594.63;;;7.19;100.00
51460;BME280;37534;39.772;2.718;2023-01-26T01:11:24;101575.78;;;7.14;100.00
51460;BME280;37534;39.772;2.718;2023-01-26T01:13:50;101577.50;;;7.06;100.00
51460;BME280;37534;39.772;2.718;2023-01-26T01:16:16;101579.22;;;7.08;100.00
51460;BME280;37534;39.772;2.718;2023-01-26T01:18:42;101581.78;;;7.03;100.00
51460;BME280;37534;39.772;2.718;2023-01-26T01:21:16;101577.53;;;7.18;100.00
51460;BME280;37534;39.772;2.718;2023-01-26T01:23:42;101577.50;;;7.04;100.00
51460;BME280;37534;39.772;2.718;2023-01-26T01:26:09;101585.16;;;6.93;100.00
51460;BME280;37534;39.772;2.718;2023-01-26T01:28:35;101580.03;;;6.92;100.00
51460;BME280;37534;39.772;2.718;2023-01-26T01:31:05;101579.22;;;7.10;100.00
51460;BME280;37534;39.772;2.718;2023-01-26T01:33:31;101555.25;;;7.01;100.00
51460;BME280;37534;39.772;2.718;2023-01-26T01:36:09;101559.50;;;6.96;100.00
51460;BME280;37534;39.772;2.718;2023-01-26T01:38:35;101562.88;;;6.80;100.00
51460;BME280;37534;39.772;2.718;2023-01-26T01:41:00;101553.44;;;6.73;100.00
51460;BME280;37534;39.772;2.718;2023-01-26T01:43:27;101550.94;;;6.85;100.00
51460;BME280;37534;39.772;2.718;2023-01-26T01:45:53;101534.66;;;6.74;100.00
51460;BME280;37534;39.772;2.718;2023-01-26T01:51:06;101563.75;;;6.85;100.00
51460;BME280;37534;39.772;2.718;2023-01-26T01:53:36;101553.50;;;6.85;100.00
51460;BME280;37534;39.772;2.718;2023-01-26T01:56:08;101548.34;;;6.82;100.00
51460;BME280;37534;39.772;2.718;2023-01-26T01:58:39;101548.34;;;6.79;100.00
51460;BME280;37534;39.772;2.718;2023-01-26T02:01:07;101546.66;;;6.85;100.00
51460;BME280;37534;39.772;2.718;2023-01-26T02:03:34;101539.81;;;6.84;100.00
51460;BME280;37534;39.772;2.718;2023-01-26T02:06:11;101546.63;;;6.76;100.00
51460;BME280;37534;39.772;2.718;2023-01-26T02:08:42;101551.75;;;6.78;100.00
51460;BME280;37534;39.772;2.718;2023-01-26T02:11:40;101551.78;;;6.81;100.00
51460;BME280;37534;39.772;2.718;2023-01-26T02:14:11;101530.34;;;6.62;100.00
51460;BME280;37534;39.772;2.718;2023-01-26T02:16:38;101536.31;;;6.59;100.00
51460;BME280;37534;39.772;2.718;2023-01-26T02:19:11;101530.31;;;6.53;100.00
51460;BME280;37534;39.772;2.718;2023-01-26T02:21:39;101532.06;;;6.61;100.00
51460;BME280;37534;39.772;2.718;2023-01-26T02:24:25;101531.16;;;6.47;100.00
51460;BME280;37534;39.772;2.718;2023-01-26T02:26:54;101512.28;;;6.30;100.00
51460;BME280;37534;39.772;2.718;2023-01-26T02:29:20;101523.38;;;6.30;100.00
51460;BME280;37534;39.772;2.718;2023-01-26T02:31:45;101519.88;;;6.16;100.00
51460;BME280;37534;39.772;2.718;2023-01-26T02:34:11;101510.50;;;6.13;100.00
51460;BME280;37534;39.772;2.718;2023-01-26T02:36:37;101519.88;;;6.13;100.00
51460;BME280;37534;39.772;2.718;2023-01-26T02:39:24;101512.25;;;6.26;100.00
51460;BME280;37534;39.772;2.718;2023-01-26T02:41:53;101500.31;;;6.25;100.00
51460;BME280;37534;39.772;2.718;2023-01-26T02:44:38;101512.19;;;6.14;100.00
51460;BME280;37534;39.772;2.718;2023-01-26T02:47:13;101515.53;;;6.04;100.00
51460;BME280;37534;39.772;2.718;2023-01-26T02:49:39;101494.97;;;5.95;100.00
51460;BME280;37534;39.772;2.718;2023-01-26T02:52:23;101514.59;;;5.91;100.00
51460;BME280;37534;39.772;2.718;2023-01-26T02:54:50;101493.16;;;5.72;100.00
51460;BME280;37534;39.772;2.718;2023-01-26T02:57:35;101497.47;;;5.84;100.00
51460;BME280;37534;39.772;2.718;2023-01-26T03:00:02;101494.81;;;5.71;100.00
51460;BME280;37534;39.772;2.718;2023-01-26T03:02:28;101491.47;;;5.80;100.00
51460;BME280;37534;39.772;2.718;2023-01-26T03:04:53;101472.66;;;5.72;100.00
51460;BME280;37534;39.772;2.718;2023-01-26T03:07:19;101479.41;;;5.61;100.00
51460;BME280;37534;39.772;2.718;2023-01-26T03:09:44;101475.16;;;5.66;100.00
51460;BME280;37534;39.772;2.718;2023-01-26T03:12:10;101471.69;;;5.53;100.00
51460;BME280;37534;39.772;2.718;2023-01-26T03:14:35;101470.66;;;5.32;100.00
51460;BME280;37534;39.772;2.718;2023-01-26T03:17:01;101462.88;;;5.17;100.00
51460;BME280;37534;39.772;2.718;2023-01-26T03:19:26;101462.78;;;5.05;100.00
51460;BME280;37534;39.772;2.718;2023-01-26T03:22:10;101467.91;;;5.09;100.00
51460;BME280;37534;39.772;2.718;2023-01-26T03:24:54;101465.53;;;5.32;100.00
51460;BME280;37534;39.772;2.718;2023-01-26T03:27:47;101469.84;;;5.38;100.00
51460;BME280;37534;39.772;2.718;2023-01-26T03:30:15;101467.13;;;5.17;100.00
51460;BME280;37534;39.772;2.718;2023-01-26T03:32:41;101458.44;;;4.99;100.00
51460;BME280;37534;39.772;2.718;2023-01-26T03:35:07;101458.47;;;5.02;100.00
51460;BME280;37534;39.772;2.718;2023-01-26T03:37:40;101447.50;;;5.14;100.00
51460;BME280;37534;39.772;2.718;2023-01-26T03:40:10;101455.13;;;5.06;100.00
51460;BME280;37534;39.772;2.718;2023-01-26T03:42:54;101453.31;;;4.96;100.00
51460;BME280;37534;39.772;2.718;2023-01-26T03:45:38;101455.03;;;5.00;100.00
51460;BME280;37534;39.772;2.718;2023-01-26T03:48:22;101443.28;;;5.22;100.00
51460;BME280;37534;39.772;2.718;2023-01-26T03:51:06;101434.78;;;5.25;100.00
51460;BME280;37534;39.772;2.718;2023-01-26T03:53:50;101433.88;;;5.17;100.00
51460;BME280;37534;39.772;2.718;2023-01-26T03:56:33;101432.84;;;4.99;100.00
51460;BME280;37534;39.772;2.718;2023-01-26T03:59:01;101426.81;;;4.88;100.00
51460;BME280;37534;39.772;2.718;2023-01-26T04:01:36;101412.31;;;4.88;100.00
51460;BME280;37534;39.772;2.718;2023-01-26T04:04:03;101417.44;;;4.87;100.00
51460;BME280;37534;39.772;2.718;2023-01-26T04:06:48;101414.88;;;4.87;100.00
51460;BME280;37534;39.772;2.718;2023-01-26T04:09:33;101407.25;;;4.93;100.00
51460;BME280;37534;39.772;2.718;2023-01-26T04:11:59;101397.84;;;4.92;100.00
51460;BME280;37534;39.772;2.718;2023-01-26T04:14:24;101394.41;;;4.85;100.00
51460;BME280;37534;39.772;2.718;2023-01-26T04:17:09;101400.28;;;4.75;100.00
51460;BME280;37534;39.772;2.718;2023-01-26T04:19:53;101399.28;;;4.59;100.00
51460;BME280;37534;39.772;2.718;2023-01-26T04:22:38;101385.59;;;4.54;100.00
51460;BME280;37534;39.772;2.718;2023-01-26T04:25:15;101375.25;;;4.42;100.00
51460;BME280;37534;39.772;2.718;2023-01-26T04:27:41;101376.06;;;4.36;100.00
51460;BME280;37534;39.772;2.718;2023-01-26T04:30:08;101380.31;;;4.38;100.00
51460;BME280;37534;39.772;2.718;2023-01-26T04:32:34;101377.59;;;4.20;100.00
51460;BME280;37534;39.772;2.718;2023-01-26T04:35:00;101374.13;;;4.15;100.00
51460;BME280;37534;39.772;2.718;2023-01-26T04:37:25;101372.28;;;4.05;100.00
51460;BME280;37534;39.772;2.718;2023-01-26T04:39:51;101380.81;;;4.04;100.00
51460;BME280;37534;39.772;2.718;2023-01-26T04:42:16;101363.09;;;4.21;100.00
51460;BME280;37534;39.772;2.718;2023-01-26T04:44:42;101374.22;;;4.24;100.00
51460;BME280;37534;39.772;2.718;2023-01-26T04:47:07;101365.50;;;4.07;100.00
51460;BME280;37534;39.772;2.718;2023-01-26T04:49:33;101367.28;;;4.14;100.00
51460;BME280;37534;39.772;2.718;2023-01-26T04:51:58;101370.88;;;4.31;100.00
51460;BME280;37534;39.772;2.718;2023-01-26T04:54:24;101371.00;;;4.41;100.00
51460;BME280;37534;39.772;2.718;2023-01-26T04:56:49;101374.41;;;4.41;100.00
51460;BME280;37534;39.772;2.718;2023-01-26T04:59:16;101365.59;;;4.13;100.00
51460;BME280;37534;39.772;2.718;2023-01-26T05:01:41;101369.69;;;3.98;100.00
51460;BME280;37534;39.772;2.718;2023-01-26T05:04:07;101367.22;;;4.06;100.00
51460;BME280;37534;39.772;2.718;2023-01-26T05:06:33;101361.22;;;4.04;100.00
51460;BME280;37534;39.772;2.718;2023-01-26T05:08:58;101350.69;;;3.76;100.00
51460;BME280;37534;39.772;2.718;2023-01-26T05:11:24;101358.25;;;3.69;100.00
51460;BME280;37534;39.772;2.718;2023-01-26T05:13:50;101365.97;;;3.73;100.00
51460;BME280;37534;39.772;2.718;2023-01-26T05:16:16;101356.56;;;3.71;100.00
51460;BME280;37534;39.772;2.718;2023-01-26T05:18:42;101356.47;;;3.61;100.00
51460;BME280;37534;39.772;2.718;2023-01-26T05:21:09;101356.38;;;3.57;100.00
51460;BME280;37534;39.772;2.718;2023-01-26T05:23:35;101359.19;;;3.75;100.00
51460;BME280;37534;39.772;2.718;2023-01-26T05:26:02;101348.91;;;3.71;100.00
51460;BME280;37534;39.772;2.718;2023-01-26T05:28:28;101348.84;;;3.65;100.00
51460;BME280;37534;39.772;2.718;2023-01-26T05:30:53;101341.91;;;3.54;100.00
51460;BME280;37534;39.772;2.718;2023-01-26T05:33:19;101348.66;;;3.49;100.00
51460;BME280;37534;39.772;2.718;2023-01-26T05:35:47;101342.66;;;3.47;100.00
51460;BME280;37534;39.772;2.718;2023-01-26T05:38:13;101334.09;;;3.42;100.00
51460;BME280;37534;39.772;2.718;2023-01-26T05:40:39;101339.19;;;3.42;100.00
51460;BME280;37534;39.772;2.718;2023-01-26T05:43:05;101345.97;;;3.40;100.00
51460;BME280;37534;39.772;2.718;2023-01-26T05:45:30;101339.13;;;3.37;100.00
51460;BME280;37534;39.772;2.718;2023-01-26T05:47:56;101343.78;;;3.66;100.00
51460;BME280;37534;39.772;2.718;2023-01-26T05:50:21;101336.00;;;3.58;100.00
51460;BME280;37534;39.772;2.718;2023-01-26T05:52:47;101337.63;;;3.53;100.00
51460;BME280;37534;39.772;2.718;2023-01-26T05:55:14;101346.81;;;3.39;100.00
51460;BME280;37534;39.772;2.718;2023-01-26T05:57:40;101344.19;;;3.33;100.00
51460;BME280;37534;39.772;2.718;2023-01-26T06:00:06;101344.41;;;3.51;100.00
51460;BME280;37534;39.772;2.718;2023-01-26T06:02:32;101337.63;;;3.52;100.00
51460;BME280;37534;39.772;2.718;2023-01-26T06:04:58;101345.13;;;3.41;100.00
51460;BME280;37534;39.772;2.718;2023-01-26T06:07:23;101350.25;;;3.42;100.00
51460;BME280;37534;39.772;2.718;2023-01-26T06:09:51;101349.38;;;3.40;100.00
51460;BME280;37534;39.772;2.718;2023-01-26T06:12:19;101346.78;;;3.36;100.00
51460;BME280;37534;39.772;2.718;2023-01-26T06:14:46;101334.78;;;3.30;100.00
51460;BME280;37534;39.772;2.718;2023-01-26T06:17:13;101343.09;;;3.17;100.00
51460;BME280;37534;39.772;2.718;2023-01-26T06:19:39;101324.41;;;3.16;100.00
51460;BME280;37534;39.772;2.718;2023-01-26T06:22:10;101343.91;;;3.14;100.00
51460;BME280;37534;39.772;2.718;2023-01-26T06:24:36;101343.94;;;3.17;100.00
51460;BME280;37534;39.772;2.718;2023-01-26T06:27:01;101337.22;;;3.22;100.00
51460;BME280;37534;39.772;2.718;2023-01-26T06:29:27;101348.31;;;3.24;100.00
51460;BME280;37534;39.772;2.718;2023-01-26T06:31:53;101337.28;;;3.26;100.00
51460;BME280;37534;39.772;2.718;2023-01-26T06:34:18;101343.34;;;3.32;100.00
51460;BME280;37534;39.772;2.718;2023-01-26T06:36:44;101337.56;;;3.47;100.00
51460;BME280;37534;39.772;2.718;2023-01-26T06:39:11;101333.28;;;3.46;100.00
51460;BME280;37534;39.772;2.718;2023-01-26T06:41:37;101344.47;;;3.54;100.00
51460;BME280;37534;39.772;2.718;2023-01-26T06:44:02;101343.75;;;3.65;100.00
51460;BME280;37534;39.772;2.718;2023-01-26T06:46:28;101337.94;;;3.75;100.00
51460;BME280;37534;39.772;2.718;2023-01-26T06:48:53;101330.25;;;3.76;100.00
51460;BME280;37534;39.772;2.718;2023-01-26T06:53:56;101334.72;;;3.91;100.00
51460;BME280;37534;39.772;2.718;2023-01-26T06:56:23;101339.78;;;3.90;100.00
51460;BME280;37534;39.772;2.718;2023-01-26T06:58:49;101327.88;;;3.90;100.00
51460;BME280;37534;39.772;2.718;2023-01-26T07:01:22;101335.63;;;3.96;100.00
51460;BME280;37534;39.772;2.718;2023-01-26T07:03:50;101334.91;;;4.10;100.00
51460;BME280;37534;39.772;2.718;2023-01-26T07:06:16;101341.88;;;4.23;100.00
51460;BME280;37534;39.772;2.718;2023-01-26T07:08:41;101329.88;;;4.16;100.00
51460;BME280;37534;39.772;2.718;2023-01-26T07:11:07;101329.91;;;4.21;100.00
51460;BME280;37534;39.772;2.718;2023-01-26T07:13:34;101329.97;;;4.25;100.00
51460;BME280;37534;39.772;2.718;2023-01-26T07:16:07;101332.56;;;4.28;100.00
51460;BME280;37534;39.772;2.718;2023-01-26T07:18:33;101316.13;;;4.06;100.00
51460;BME280;37534;39.772;2.718;2023-01-26T07:21:05;101313.44;;;3.94;100.00
51460;BME280;37534;39.772;2.718;2023-01-26T07:23:31;101319.34;;;3.88;100.00
51460;BME280;37534;39.772;2.718;2023-01-26T07:25:57;101308.31;;;3.89;100.00
51460;BME280;37534;39.772;2.718;2023-01-26T07:28:24;101305.75;;;3.89;100.00
51460;BME280;37534;39.772;2.718;2023-01-26T07:30:50;101303.38;;;4.06;100.00
51460;BME280;37534;39.772;2.718;2023-01-26T07:33:16;101303.44;;;4.11;100.00
51460;BME280;37534;39.772;2.718;2023-01-26T07:35:42;101311.97;;;4.14;100.00
51460;BME280;37534;39.772;2.718;2023-01-26T07:38:07;101306.16;;;4.29;100.00
51460;BME280;37534;39.772;2.718;2023-01-26T07:40:33;101307.13;;;4.41;100.00
51460;BME280;37534;39.772;2.718;2023-01-26T07:42:59;101315.69;;;4.49;100.00
51460;BME280;37534;39.772;2.718;2023-01-26T07:45:26;101311.50;;;4.55;100.00
51460;BME280;37534;39.772;2.718;2023-01-26T07:47:55;101311.56;;;4.63;100.00
51460;BME280;37534;39.772;2.718;2023-01-26T07:50:21;101315.91;;;4.73;100.00
51460;BME280;37534;39.772;2.718;2023-01-26T07:52:48;101313.41;;;4.78;100.00
51460;BME280;37534;39.772;2.718;2023-01-26T07:55:17;101320.25;;;4.84;100.00
51460;BME280;37534;39.772;2.718;2023-01-26T07:57:46;101300.69;;;4.89;100.00
51460;BME280;37534;39.772;2.718;2023-01-26T08:00:12;101310.97;;;5.03;100.00
51460;BME280;37534;39.772;2.718;2023-01-26T08:02:38;101323.91;;;5.23;100.00
51460;BME280;37534;39.772;2.718;2023-01-26T08:05:04;101312.91;;;5.41;100.00
51460;BME280;37534;39.772;2.718;2023-01-26T08:07:31;101329.22;;;5.57;100.00
51460;BME280;37534;39.772;2.718;2023-01-26T08:09:56;101324.16;;;5.78;100.00
51460;BME280;37534;39.772;2.718;2023-01-26T08:12:23;101319.06;;;5.87;100.00
51460;BME280;37534;39.772;2.718;2023-01-26T08:14:49;101310.63;;;6.01;100.00
51460;BME280;37534;39.772;2.718;2023-01-26T08:17:15;101317.47;;;6.23;100.00
51460;BME280;37534;39.772;2.718;2023-01-26T08:19:42;101322.63;;;6.39;100.00
51460;BME280;37534;39.772;2.718;2023-01-26T08:22:07;101314.09;;;6.40;100.00
51460;BME280;37534;39.772;2.718;2023-01-26T08:24:33;101317.53;;;6.51;100.00
51460;BME280;37534;39.772;2.718;2023-01-26T08:26:59;101327.78;;;6.76;100.00
51460;BME280;37534;39.772;2.718;2023-01-26T08:29:24;101326.06;;;6.93;100.00
51460;BME280;37534;39.772;2.718;2023-01-26T08:31:50;101323.47;;;7.10;100.00
51460;BME280;37534;39.772;2.718;2023-01-26T08:34:15;101324.28;;;7.28;100.00
51460;BME280;37534;39.772;2.718;2023-01-26T08:36:41;101326.00;;;7.24;100.00
51460;BME280;37534;39.772;2.718;2023-01-26T08:39:06;101337.09;;;7.40;100.00
51460;BME280;37534;39.772;2.718;2023-01-26T08:41:32;101330.19;;;7.56;100.00
51460;BME280;37534;39.772;2.718;2023-01-26T08:43:58;101329.25;;;7.72;100.00
51460;BME280;37534;39.772;2.718;2023-01-26T08:46:24;101322.34;;;7.87;100.00
51460;BME280;37534;39.772;2.718;2023-01-26T08:48:50;101332.56;;;8.02;100.00
51460;BME280;37534;39.772;2.718;2023-01-26T08:51:16;101328.22;;;8.12;100.00
51460;BME280;37534;39.772;2.718;2023-01-26T08:53:42;101334.97;;;8.28;100.00
51460;BME280;37534;39.772;2.718;2023-01-26T08:56:09;101335.75;;;8.40;100.00
51460;BME280;37534;39.772;2.718;2023-01-26T08:58:35;101339.16;;;8.49;100.00
51460;BME280;37534;39.772;2.718;2023-01-26T09:01:12;101335.69;;;8.53;100.00
51460;BME280;37534;39.772;2.718;2023-01-26T09:03:38;101337.25;;;8.70;100.00
51460;BME280;37534;39.772;2.718;2023-01-26T09:06:05;101338.78;;;8.92;100.00
51460;BME280;37534;39.772;2.718;2023-01-26T09:08:32;101347.81;;;9.35;100.00
51460;BME280;37534;39.772;2.718;2023-01-26T09:10:58;101347.41;;;9.69;100.00
51460;BME280;37534;39.772;2.718;2023-01-26T09:13:24;101344.88;;;9.67;100.00
51460;BME280;37534;39.772;2.718;2023-01-26T09:15:49;101339.94;;;10.16;100.00
51460;BME280;37534;39.772;2.718;2023-01-26T09:18:15;101346.22;;;11.08;100.00
51460;BME280;37534;39.772;2.718;2023-01-26T09:20:40;101334.53;;;11.79;100.00
51460;BME280;37534;39.772;2.718;2023-01-26T09:23:06;101341.44;;;12.19;100.00
51460;BME280;37534;39.772;2.718;2023-01-26T09:25:35;101345.31;;;12.39;99.48
51460;BME280;37534;39.772;2.718;2023-01-26T09:28:02;101346.25;;;12.34;97.95
51460;BME280;37534;39.772;2.718;2023-01-26T09:30:27;101337.31;;;12.12;100.00
51460;BME280;37534;39.772;2.718;2023-01-26T09:33:00;101341.94;;;11.97;96.98
51460;BME280;37534;39.772;2.718;2023-01-26T09:35:27;101341.19;;;11.89;100.00
51460;BME280;37534;39.772;2.718;2023-01-26T09:37:53;101340.63;;;11.76;100.00
51460;BME280;37534;39.772;2.718;2023-01-26T09:40:34;101348.41;;;11.75;99.73
51460;BME280;37534;39.772;2.718;2023-01-26T09:43:30;101341.59;;;11.71;100.00
51460;BME280;37534;39.772;2.718;2023-01-26T09:48:36;101349.88;;;12.99;100.00
51460;BME280;37534;39.772;2.718;2023-01-26T09:51:23;101358.06;;;15.17;83.66
51460;BME280;37534;39.772;2.718;2023-01-26T09:53:58;101354.75;;;16.73;76.14
51460;BME280;37534;39.772;2.718;2023-01-26T09:56:27;101354.19;;;16.66;68.58
51460;BME280;37534;39.772;2.718;2023-01-26T09:59:02;101355.97;;;16.44;67.28
51460;BME280;37534;39.772;2.718;2023-01-26T10:01:37;101359.66;;;16.38;68.77
51460;BME280;37534;39.772;2.718;2023-01-26T10:04:16;101364.78;;;16.18;69.21
51460;BME280;37534;39.772;2.718;2023-01-26T10:06:46;101362.94;;;16.43;66.68
51460;BME280;37534;39.772;2.718;2023-01-26T10:09:25;101350.88;;;16.19;63.67
51460;BME280;37534;39.772;2.718;2023-01-26T10:11:58;101350.22;;;15.90;57.96
51460;BME280;37534;39.772;2.718;2023-01-26T10:14:42;101351.75;;;17.04;58.30
51460;BME280;37534;39.772;2.718;2023-01-26T10:17:24;101349.34;;;18.34;52.78
51460;BME280;37534;39.772;2.718;2023-01-26T10:22:39;101347.34;;;19.60;45.62
51460;BME280;37534;39.772;2.718;2023-01-26T10:25:15;101351.50;;;20.74;44.60
51460;BME280;37534;39.772;2.718;2023-01-26T10:27:41;101340.66;;;22.23;40.55
51460;BME280;37534;39.772;2.718;2023-01-26T10:30:12;101341.88;;;23.72;38.90
51460;BME280;37534;39.772;2.718;2023-01-26T10:32:40;101342.81;;;25.26;33.27
51460;BME280;37534;39.772;2.718;2023-01-26T10:35:15;101341.09;;;26.46;33.71
51460;BME280;37534;39.772;2.718;2023-01-26T10:37:41;101340.66;;;27.35;30.84
51460;BME280;37534;39.772;2.718;2023-01-26T10:40:07;101339.16;;;28.22;28.59
51460;BME280;37534;39.772;2.718;2023-01-26T10:42:34;101325.56;;;27.26;28.99
51460;BME280;37534;39.772;2.718;2023-01-26T10:45:04;101333.06;;;25.49;31.44
51460;BME280;37534;39.772;2.718;2023-01-26T10:47:30;101326.38;;;23.44;34.20
51460;BME280;37534;39.772;2.718;2023-01-26T10:50:20;101331.28;;;22.58;34.97
51460;BME280;37534;39.772;2.718;2023-01-26T10:53:02;101329.50;;;22.72;34.01
51460;BME280;37534;39.772;2.718;2023-01-26T10:55:30;101318.75;;;24.73;33.73
51460;BME280;37534;39.772;2.718;2023-01-26T10:57:57;101310.97;;;25.61;29.99
51460;BME280;37534;39.772;2.718;2023-01-26T11:00:27;101320.69;;;27.00;29.73
51460;BME280;37534;39.772;2.718;2023-01-26T11:02:58;101309.72;;;26.74;28.69
51460;BME280;37534;39.772;2.718;2023-01-26T11:05:27;101309.84;;;27.03;28.34
51460;BME280;37534;39.772;2.718;2023-01-26T11:07:54;101301.53;;;25.91;29.72
51460;BME280;37534;39.772;2.718;2023-01-26T11:10:30;101305.34;;;22.27;31.98
51460;BME280;37534;39.772;2.718;2023-01-26T11:15:37;101288.41;;;20.47;37.60
51460;BME280;37534;39.772;2.718;2023-01-26T11:18:12;101275.00;;;20.82;36.21
51460;BME280;37534;39.772;2.718;2023-01-26T11:21:05;101281.59;;;20.28;38.45
51460;BME280;37534;39.772;2.718;2023-01-26T11:26:20;101271.19;;;19.33;40.60
51460;BME280;37534;39.772;2.718;2023-01-26T11:29:17;101280.31;;;18.03;43.98
51460;BME280;37534;39.772;2.718;2023-01-26T11:37:42;101253.78;;;15.94;53.89
51460;BME280;37534;39.772;2.718;2023-01-26T11:46:20;101251.38;;;14.72;63.15
51460;BME280;37534;39.772;2.718;2023-01-26T11:51:55;101241.91;;;14.17;66.24
51460;BME280;37534;39.772;2.718;2023-01-26T11:59:45;101231.28;;;13.42;72.52
51460;BME280;37534;39.772;2.718;2023-01-26T12:02:27;101227.84;;;13.41;73.42
51460;BME280;37534;39.772;2.718;2023-01-26T12:04:56;101231.69;;;13.26;74.59
51460;BME280;37534;39.772;2.718;2023-01-26T12:09:54;101225.13;;;12.83;76.67
51460;BME280;37534;39.772;2.718;2023-01-26T12:12:33;101215.13;;;12.69;77.71
51460;BME280;37534;39.772;2.718;2023-01-26T12:20:26;101209.09;;;12.36;81.21
51460;BME280;37534;39.772;2.718;2023-01-26T12:23:05;101189.13;;;12.07;80.96
51460;BME280;37534;39.772;2.718;2023-01-26T12:25:40;101202.19;;;12.01;82.56
51460;BME280;37534;39.772;2.718;2023-01-26T12:33:27;101186.41;;;11.74;83.50
51460;BME280;37534;39.772;2.718;2023-01-26T12:35:58;101186.34;;;11.77;84.06
51460;BME280;37534;39.772;2.718;2023-01-26T12:41:51;101177.13;;;11.65;85.36
51460;BME280;37534;39.772;2.718;2023-01-26T12:47:14;101167.66;;;11.66;88.08
51460;BME280;37534;39.772;2.718;2023-01-26T12:49:50;101159.81;;;11.69;86.97
51460;BME280;37534;39.772;2.718;2023-01-26T12:58:11;101148.84;;;11.60;87.30
51460;BME280;37534;39.772;2.718;2023-01-26T13:00:36;101153.72;;;11.73;87.84
51460;BME280;37534;39.772;2.718;2023-01-26T13:05:54;101142.56;;;11.71;87.75
51460;BME280;37534;39.772;2.718;2023-01-26T13:10:58;101135.53;;;11.76;87.63
51460;BME280;37534;39.772;2.718;2023-01-26T13:16:31;101136.19;;;11.84;87.20
51460;BME280;37534;39.772;2.718;2023-01-26T13:18:57;101125.25;;;11.74;87.09
51460;BME280;37534;39.772;2.718;2023-01-26T13:26:51;101111.69;;;12.01;85.97
51460;BME280;37534;39.772;2.718;2023-01-26T13:31:49;101110.78;;;12.34;83.71
51460;BME280;37534;39.772;2.718;2023-01-26T13:34:17;101108.09;;;12.39;83.61
51460;BME280;37534;39.772;2.718;2023-01-26T13:36:44;101106.31;;;12.41;83.82
51460;BME280;37534;39.772;2.718;2023-01-26T13:41:51;101106.50;;;12.65;81.83
51460;BME280;37534;39.772;2.718;2023-01-26T13:44:20;101105.06;;;12.86;78.89
51460;BME280;37534;39.772;2.718;2023-01-26T13:46:55;101102.72;;;12.77;79.36
51460;BME280;37534;39.772;2.718;2023-01-26T13:49:40;101104.69;;;12.68;82.61
51460;BME280;37534;39.772;2.718;2023-01-26T13:52:17;101097.47;;;12.48;86.26
51460;BME280;37534;39.772;2.718;2023-01-26T13:54:44;101102.47;;;12.23;89.45
51460;BME280;37534;39.772;2.718;2023-01-26T13:57:12;101098.22;;;11.86;92.02
51460;BME280;37534;39.772;2.718;2023-01-26T13:59:52;101108.69;;;11.82;93.28
51460;BME280;37534;39.772;2.718;2023-01-26T14:02:33;101102.31;;;11.60;94.16
51460;BME280;37534;39.772;2.718;2023-01-26T14:05:00;101114.00;;;11.39;92.73
51460;BME280;37534;39.772;2.718;2023-01-26T14:07:42;101111.16;;;11.13;93.82
51460;BME280;37534;39.772;2.718;2023-01-26T14:10:14;101112.28;;;10.99;94.72
51460;BME280;37534;39.772;2.718;2023-01-26T14:12:42;101115.25;;;10.81;99.35
51460;BME280;37534;39.772;2.718;2023-01-26T14:15:23;101105.53;;;10.52;100.00
51460;BME280;37534;39.772;2.718;2023-01-26T14:17:54;101110.13;;;10.36;100.00
51460;BME280;37534;39.772;2.718;2023-01-26T14:20:34;101120.84;;;10.13;100.00
51460;BME280;37534;39.772;2.718;2023-01-26T14:25:39;101130.06;;;9.73;100.00